sensor_id;sensor_type;location;lat;lon;timestamp;P1;durP1;ratioP1;P2;durP2;ratioP2
39218;SDS011;24934;52.752;6.964;2023-02-15T00:01:33;152.57;;;77.10;;
39218;SDS011;24934;52.752;6.964;2023-02-15T00:04:00;158.07;;;78.47;;
39218;SDS011;24934;52.752;6.964;2023-02-15T00:06:26;155.00;;;75.63;;
39218;SDS011;24934;52.752;6.964;2023-02-15T00:08:52;148.20;;;75.93;;
39218;SDS011;24934;52.752;6.964;2023-02-15T00:11:19;148.47;;;75.57;;
39218;SDS011;24934;52.752;6.964;2023-02-15T00:14:13;151.50;;;74.80;;
39218;SDS011;24934;52.752;6.964;2023-02-15T00:16:44;151.40;;;73.10;;
39218;SDS011;24934;52.752;6.964;2023-02-15T00:19:10;145.67;;;73.73;;
39218;SDS011;24934;52.752;6.964;2023-02-15T00:21:36;145.37;;;72.33;;
39218;SDS011;24934;52.752;6.964;2023-02-15T00:24:04;147.73;;;72.13;;
39218;SDS011;24934;52.752;6.964;2023-02-15T00:26:31;133.53;;;69.77;;
39218;SDS011;24934;52.752;6.964;2023-02-15T00:28:57;125.90;;;68.33;;
39218;SDS011;24934;52.752;6.964;2023-02-15T00:31:24;133.50;;;69.77;;
39218;SDS011;24934;52.752;6.964;2023-02-15T00:33:50;129.47;;;66.30;;
39218;SDS011;24934;52.752;6.964;2023-02-15T00:36:16;131.13;;;67.53;;
39218;SDS011;24934;52.752;6.964;2023-02-15T00:38:41;115.20;;;64.23;;
39218;SDS011;24934;52.752;6.964;2023-02-15T00:41:08;129.40;;;67.93;;
39218;SDS011;24934;52.752;6.964;2023-02-15T00:43:35;126.93;;;68.50;;
39218;SDS011;24934;52.752;6.964;2023-02-15T00:46:01;137.60;;;68.70;;
39218;SDS011;24934;52.752;6.964;2023-02-15T00:48:28;137.70;;;69.47;;
39218;SDS011;24934;52.752;6.964;2023-02-15T00:50:57;139.53;;;68.80;;
39218;SDS011;24934;52.752;6.964;2023-02-15T00:53:24;141.57;;;70.03;;
39218;SDS011;24934;52.752;6.964;2023-02-15T00:55:50;133.70;;;68.70;;
39218;SDS011;24934;52.752;6.964;2023-02-15T00:58:16;133.60;;;67.47;;
39218;SDS011;24934;52.752;6.964;2023-02-15T01:00:43;133.07;;;67.27;;
39218;SDS011;24934;52.752;6.964;2023-02-15T01:03:10;134.93;;;69.07;;
39218;SDS011;24934;52.752;6.964;2023-02-15T01:05:36;124.30;;;66.53;;
39218;SDS011;24934;52.752;6.964;2023-02-15T01:08:02;130.17;;;66.87;;
39218;SDS011;24934;52.752;6.964;2023-02-15T01:10:28;130.33;;;67.43;;
39218;SDS011;24934;52.752;6.964;2023-02-15T01:12:54;132.83;;;67.43;;
39218;SDS011;24934;52.752;6.964;2023-02-15T01:15:21;131.53;;;66.47;;
39218;SDS011;24934;52.752;6.964;2023-02-15T01:17:47;126.93;;;65.77;;
39218;SDS011;24934;52.752;6.964;2023-02-15T01:20:21;103.40;;;60.57;;
39218;SDS011;24934;52.752;6.964;2023-02-15T01:22:52;102.53;;;61.87;;
39218;SDS011;24934;52.752;6.964;2023-02-15T01:25:18;101.60;;;59.93;;
39218;SDS011;24934;52.752;6.964;2023-02-15T01:27:46;112.47;;;63.13;;
39218;SDS011;24934;52.752;6.964;2023-02-15T01:30:12;128.30;;;65.27;;
39218;SDS011;24934;52.752;6.964;2023-02-15T01:32:40;129.67;;;66.47;;
39218;SDS011;24934;52.752;6.964;2023-02-15T01:35:06;134.07;;;67.57;;
39218;SDS011;24934;52.752;6.964;2023-02-15T01:37:32;139.90;;;70.30;;
39218;SDS011;24934;52.752;6.964;2023-02-15T01:39:59;148.73;;;71.83;;
39218;SDS011;24934;52.752;6.964;2023-02-15T01:42:26;138.30;;;70.87;;
39218;SDS011;24934;52.752;6.964;2023-02-15T01:44:54;134.50;;;70.33;;
39218;SDS011;24934;52.752;6.964;2023-02-15T01:47:41;147.30;;;71.73;;
39218;SDS011;24934;52.752;6.964;2023-02-15T01:52:50;142.83;;;69.97;;
39218;SDS011;24934;52.752;6.964;2023-02-15T01:55:23;155.70;;;71.77;;
39218;SDS011;24934;52.752;6.964;2023-02-15T01:57:52;152.43;;;72.23;;
39218;SDS011;24934;52.752;6.964;2023-02-15T02:00:18;147.73;;;71.73;;
39218;SDS011;24934;52.752;6.964;2023-02-15T02:02:45;168.93;;;72.93;;
39218;SDS011;24934;52.752;6.964;2023-02-15T02:05:14;151.20;;;73.13;;
39218;SDS011;24934;52.752;6.964;2023-02-15T02:07:41;153.80;;;72.17;;
39218;SDS011;24934;52.752;6.964;2023-02-15T02:10:13;149.40;;;71.67;;
39218;SDS011;24934;52.752;6.964;2023-02-15T02:12:41;150.47;;;73.10;;
39218;SDS011;24934;52.752;6.964;2023-02-15T02:15:13;155.37;;;72.80;;
39218;SDS011;24934;52.752;6.964;2023-02-15T02:20:34;145.53;;;70.73;;
39218;SDS011;24934;52.752;6.964;2023-02-15T02:23:15;140.60;;;67.53;;
39218;SDS011;24934;52.752;6.964;2023-02-15T02:34:11;150.23;;;69.63;;
39218;SDS011;24934;52.752;6.964;2023-02-15T02:36:50;150.43;;;71.27;;
39218;SDS011;24934;52.752;6.964;2023-02-15T02:39:56;151.43;;;70.10;;
39218;SDS011;24934;52.752;6.964;2023-02-15T02:45:07;157.13;;;72.13;;
39218;SDS011;24934;52.752;6.964;2023-02-15T02:47:54;143.67;;;70.03;;
39218;SDS011;24934;52.752;6.964;2023-02-15T02:50:27;159.47;;;72.23;;
39218;SDS011;24934;52.752;6.964;2023-02-15T02:52:55;150.77;;;70.47;;
39218;SDS011;24934;52.752;6.964;2023-02-15T02:55:29;152.63;;;73.17;;
39218;SDS011;24934;52.752;6.964;2023-02-15T02:58:05;151.60;;;70.90;;
39218;SDS011;24934;52.752;6.964;2023-02-15T03:00:38;144.87;;;69.10;;
39218;SDS011;24934;52.752;6.964;2023-02-15T03:06:12;162.20;;;72.70;;
39218;SDS011;24934;52.752;6.964;2023-02-15T03:08:45;155.23;;;72.13;;
39218;SDS011;24934;52.752;6.964;2023-02-15T03:11:23;175.93;;;74.47;;
39218;SDS011;24934;52.752;6.964;2023-02-15T03:13:48;156.93;;;72.57;;
39218;SDS011;24934;52.752;6.964;2023-02-15T03:16:15;164.40;;;72.43;;
39218;SDS011;24934;52.752;6.964;2023-02-15T03:21:34;159.13;;;73.73;;
39218;SDS011;24934;52.752;6.964;2023-02-15T03:24:08;165.23;;;73.03;;
39218;SDS011;24934;52.752;6.964;2023-02-15T03:26:37;149.00;;;71.27;;
39218;SDS011;24934;52.752;6.964;2023-02-15T03:29:05;172.10;;;73.13;;
39218;SDS011;24934;52.752;6.964;2023-02-15T03:31:33;164.20;;;74.00;;
39218;SDS011;24934;52.752;6.964;2023-02-15T03:34:10;170.03;;;73.90;;
39218;SDS011;24934;52.752;6.964;2023-02-15T03:44:32;164.30;;;72.40;;
39218;SDS011;24934;52.752;6.964;2023-02-15T03:47:31;159.63;;;70.27;;
39218;SDS011;24934;52.752;6.964;2023-02-15T03:50:10;152.60;;;72.47;;
39218;SDS011;24934;52.752;6.964;2023-02-15T03:53:01;153.73;;;72.40;;
39218;SDS011;24934;52.752;6.964;2023-02-15T03:55:31;166.67;;;73.17;;
39218;SDS011;24934;52.752;6.964;2023-02-15T03:57:58;162.60;;;75.53;;
39218;SDS011;24934;52.752;6.964;2023-02-15T04:00:44;152.30;;;73.27;;
39218;SDS011;24934;52.752;6.964;2023-02-15T04:03:41;151.23;;;71.10;;
39218;SDS011;24934;52.752;6.964;2023-02-15T04:06:13;165.40;;;71.10;;
39218;SDS011;24934;52.752;6.964;2023-02-15T04:08:39;157.10;;;71.87;;
39218;SDS011;24934;52.752;6.964;2023-02-15T04:11:24;160.50;;;70.97;;
39218;SDS011;24934;52.752;6.964;2023-02-15T04:13:50;167.60;;;74.03;;
39218;SDS011;24934;52.752;6.964;2023-02-15T04:16:21;167.73;;;72.53;;
39218;SDS011;24934;52.752;6.964;2023-02-15T04:18:49;173.07;;;75.77;;
39218;SDS011;24934;52.752;6.964;2023-02-15T04:21:33;181.43;;;74.73;;
39218;SDS011;24934;52.752;6.964;2023-02-15T04:24:17;175.37;;;74.83;;
39218;SDS011;24934;52.752;6.964;2023-02-15T04:27:02;173.27;;;75.07;;
39218;SDS011;24934;52.752;6.964;2023-02-15T04:29:29;176.73;;;73.27;;
39218;SDS011;24934;52.752;6.964;2023-02-15T04:31:55;166.90;;;72.47;;
39218;SDS011;24934;52.752;6.964;2023-02-15T04:34:22;171.43;;;74.03;;
39218;SDS011;24934;52.752;6.964;2023-02-15T04:36:48;178.53;;;74.30;;
39218;SDS011;24934;52.752;6.964;2023-02-15T04:39:15;171.83;;;72.67;;
39218;SDS011;24934;52.752;6.964;2023-02-15T04:41:42;171.53;;;72.30;;
39218;SDS011;24934;52.752;6.964;2023-02-15T04:44:10;175.13;;;74.47;;
39218;SDS011;24934;52.752;6.964;2023-02-15T04:46:36;171.43;;;74.13;;
39218;SDS011;24934;52.752;6.964;2023-02-15T04:49:02;179.90;;;74.73;;
39218;SDS011;24934;52.752;6.964;2023-02-15T04:51:28;182.97;;;77.70;;
39218;SDS011;24934;52.752;6.964;2023-02-15T04:53:54;193.27;;;77.70;;
39218;SDS011;24934;52.752;6.964;2023-02-15T04:56:20;181.57;;;77.50;;
39218;SDS011;24934;52.752;6.964;2023-02-15T04:58:46;184.77;;;78.37;;
39218;SDS011;24934;52.752;6.964;2023-02-15T05:01:12;182.17;;;79.03;;
39218;SDS011;24934;52.752;6.964;2023-02-15T05:03:38;208.97;;;79.40;;
39218;SDS011;24934;52.752;6.964;2023-02-15T05:06:04;182.57;;;78.17;;
39218;SDS011;24934;52.752;6.964;2023-02-15T05:08:30;188.47;;;79.63;;
39218;SDS011;24934;52.752;6.964;2023-02-15T05:10:56;192.07;;;81.37;;
39218;SDS011;24934;52.752;6.964;2023-02-15T05:13:22;191.67;;;79.60;;
39218;SDS011;24934;52.752;6.964;2023-02-15T05:15:49;192.10;;;79.70;;
39218;SDS011;24934;52.752;6.964;2023-02-15T05:18:16;190.03;;;77.57;;
39218;SDS011;24934;52.752;6.964;2023-02-15T05:20:43;198.60;;;76.53;;
39218;SDS011;24934;52.752;6.964;2023-02-15T05:23:08;181.27;;;77.53;;
39218;SDS011;24934;52.752;6.964;2023-02-15T05:25:34;182.63;;;75.87;;
39218;SDS011;24934;52.752;6.964;2023-02-15T05:28:18;181.00;;;76.33;;
39218;SDS011;24934;52.752;6.964;2023-02-15T05:30:44;180.67;;;74.47;;
39218;SDS011;24934;52.752;6.964;2023-02-15T05:33:10;178.50;;;76.20;;
39218;SDS011;24934;52.752;6.964;2023-02-15T05:35:35;170.57;;;74.53;;
39218;SDS011;24934;52.752;6.964;2023-02-15T05:38:01;177.37;;;74.77;;
39218;SDS011;24934;52.752;6.964;2023-02-15T05:40:27;173.30;;;72.77;;
39218;SDS011;24934;52.752;6.964;2023-02-15T05:42:52;180.80;;;73.63;;
39218;SDS011;24934;52.752;6.964;2023-02-15T05:45:21;173.80;;;72.67;;
39218;SDS011;24934;52.752;6.964;2023-02-15T05:47:47;177.70;;;73.43;;
39218;SDS011;24934;52.752;6.964;2023-02-15T05:50:15;187.03;;;72.53;;
39218;SDS011;24934;52.752;6.964;2023-02-15T05:52:44;181.27;;;73.63;;
39218;SDS011;24934;52.752;6.964;2023-02-15T05:55:10;177.43;;;71.67;;
39218;SDS011;24934;52.752;6.964;2023-02-15T05:57:35;172.50;;;72.70;;
39218;SDS011;24934;52.752;6.964;2023-02-15T06:00:02;188.93;;;74.77;;
39218;SDS011;24934;52.752;6.964;2023-02-15T06:02:34;187.63;;;71.07;;
39218;SDS011;24934;52.752;6.964;2023-02-15T06:05:06;175.27;;;71.27;;
39218;SDS011;24934;52.752;6.964;2023-02-15T06:07:32;187.57;;;74.13;;
39218;SDS011;24934;52.752;6.964;2023-02-15T06:09:58;177.97;;;72.00;;
39218;SDS011;24934;52.752;6.964;2023-02-15T06:12:26;177.70;;;72.80;;
39218;SDS011;24934;52.752;6.964;2023-02-15T06:14:52;188.50;;;72.67;;
39218;SDS011;24934;52.752;6.964;2023-02-15T06:17:18;183.77;;;73.03;;
39218;SDS011;24934;52.752;6.964;2023-02-15T06:19:43;181.13;;;71.70;;
39218;SDS011;24934;52.752;6.964;2023-02-15T06:22:09;175.00;;;71.13;;
39218;SDS011;24934;52.752;6.964;2023-02-15T06:24:34;187.17;;;71.87;;
39218;SDS011;24934;52.752;6.964;2023-02-15T06:27:00;183.13;;;74.47;;
39218;SDS011;24934;52.752;6.964;2023-02-15T06:29:28;183.83;;;73.33;;
39218;SDS011;24934;52.752;6.964;2023-02-15T06:31:54;180.47;;;73.43;;
39218;SDS011;24934;52.752;6.964;2023-02-15T06:34:24;178.67;;;72.50;;
39218;SDS011;24934;52.752;6.964;2023-02-15T06:36:50;175.03;;;72.27;;
39218;SDS011;24934;52.752;6.964;2023-02-15T06:39:18;175.90;;;71.13;;
39218;SDS011;24934;52.752;6.964;2023-02-15T06:41:47;178.80;;;71.47;;
39218;SDS011;24934;52.752;6.964;2023-02-15T06:44:13;178.20;;;73.03;;
39218;SDS011;24934;52.752;6.964;2023-02-15T06:46:41;185.93;;;71.67;;
39218;SDS011;24934;52.752;6.964;2023-02-15T06:49:07;183.03;;;71.00;;
39218;SDS011;24934;52.752;6.964;2023-02-15T06:51:32;186.23;;;72.80;;
39218;SDS011;24934;52.752;6.964;2023-02-15T06:53:59;178.73;;;70.97;;
39218;SDS011;24934;52.752;6.964;2023-02-15T06:56:24;183.27;;;73.80;;
39218;SDS011;24934;52.752;6.964;2023-02-15T06:58:50;183.07;;;72.60;;
39218;SDS011;24934;52.752;6.964;2023-02-15T07:01:17;195.37;;;74.00;;
39218;SDS011;24934;52.752;6.964;2023-02-15T07:03:43;169.57;;;72.80;;
39218;SDS011;24934;52.752;6.964;2023-02-15T07:06:08;178.57;;;71.50;;
39218;SDS011;24934;52.752;6.964;2023-02-15T07:08:39;183.50;;;73.90;;
39218;SDS011;24934;52.752;6.964;2023-02-15T07:11:05;174.60;;;71.40;;
39218;SDS011;24934;52.752;6.964;2023-02-15T07:13:51;183.70;;;71.03;;
39218;SDS011;24934;52.752;6.964;2023-02-15T07:16:20;183.47;;;72.63;;
39218;SDS011;24934;52.752;6.964;2023-02-15T07:18:45;177.83;;;71.77;;
39218;SDS011;24934;52.752;6.964;2023-02-15T07:21:11;193.37;;;73.10;;
39218;SDS011;24934;52.752;6.964;2023-02-15T07:23:37;201.93;;;75.50;;
39218;SDS011;24934;52.752;6.964;2023-02-15T07:26:04;200.00;;;76.57;;
39218;SDS011;24934;52.752;6.964;2023-02-15T07:28:33;188.33;;;76.70;;
39218;SDS011;24934;52.752;6.964;2023-02-15T07:31:03;190.67;;;77.43;;
39218;SDS011;24934;52.752;6.964;2023-02-15T07:33:32;198.77;;;77.60;;
39218;SDS011;24934;52.752;6.964;2023-02-15T07:36:00;197.37;;;80.10;;
39218;SDS011;24934;52.752;6.964;2023-02-15T07:38:30;199.40;;;80.80;;
39218;SDS011;24934;52.752;6.964;2023-02-15T07:41:00;187.23;;;80.47;;
39218;SDS011;24934;52.752;6.964;2023-02-15T07:43:27;187.60;;;81.10;;
39218;SDS011;24934;52.752;6.964;2023-02-15T07:45:54;173.63;;;78.77;;
39218;SDS011;24934;52.752;6.964;2023-02-15T07:48:24;163.57;;;78.70;;
39218;SDS011;24934;52.752;6.964;2023-02-15T07:50:49;150.33;;;76.43;;
39218;SDS011;24934;52.752;6.964;2023-02-15T07:53:15;138.37;;;72.50;;
39218;SDS011;24934;52.752;6.964;2023-02-15T07:55:41;119.97;;;67.37;;
39218;SDS011;24934;52.752;6.964;2023-02-15T07:58:06;113.83;;;64.13;;
39218;SDS011;24934;52.752;6.964;2023-02-15T08:00:32;104.37;;;61.47;;
39218;SDS011;24934;52.752;6.964;2023-02-15T08:03:17;95.03;;;56.57;;
39218;SDS011;24934;52.752;6.964;2023-02-15T08:05:44;83.13;;;51.47;;
39218;SDS011;24934;52.752;6.964;2023-02-15T08:08:11;72.23;;;47.93;;
39218;SDS011;24934;52.752;6.964;2023-02-15T08:10:57;68.83;;;45.53;;
39218;SDS011;24934;52.752;6.964;2023-02-15T08:13:50;58.80;;;41.83;;
39218;SDS011;24934;52.752;6.964;2023-02-15T08:19:07;58.00;;;39.97;;
39218;SDS011;24934;52.752;6.964;2023-02-15T08:21:52;53.97;;;39.40;;
39218;SDS011;24934;52.752;6.964;2023-02-15T08:24:42;59.40;;;39.90;;
39218;SDS011;24934;52.752;6.964;2023-02-15T08:27:08;56.33;;;39.70;;
39218;SDS011;24934;52.752;6.964;2023-02-15T08:29:37;52.67;;;37.83;;
39218;SDS011;24934;52.752;6.964;2023-02-15T08:32:05;55.40;;;39.03;;
39218;SDS011;24934;52.752;6.964;2023-02-15T08:34:35;53.83;;;38.07;;
39218;SDS011;24934;52.752;6.964;2023-02-15T08:37:02;56.00;;;38.87;;
39218;SDS011;24934;52.752;6.964;2023-02-15T08:39:28;53.67;;;37.53;;
39218;SDS011;24934;52.752;6.964;2023-02-15T08:41:54;53.90;;;39.23;;
39218;SDS011;24934;52.752;6.964;2023-02-15T08:44:20;57.90;;;40.63;;
39218;SDS011;24934;52.752;6.964;2023-02-15T08:46:48;59.60;;;41.80;;
39218;SDS011;24934;52.752;6.964;2023-02-15T08:49:18;58.40;;;40.73;;
39218;SDS011;24934;52.752;6.964;2023-02-15T08:51:48;57.40;;;40.23;;
39218;SDS011;24934;52.752;6.964;2023-02-15T08:54:15;54.73;;;38.30;;
39218;SDS011;24934;52.752;6.964;2023-02-15T08:56:43;54.13;;;39.83;;
39218;SDS011;24934;52.752;6.964;2023-02-15T08:59:13;55.23;;;38.50;;
39218;SDS011;24934;52.752;6.964;2023-02-15T09:01:41;54.43;;;40.93;;
39218;SDS011;24934;52.752;6.964;2023-02-15T09:04:07;55.07;;;39.73;;
39218;SDS011;24934;52.752;6.964;2023-02-15T09:06:38;55.43;;;40.77;;
39218;SDS011;24934;52.752;6.964;2023-02-15T09:09:04;60.23;;;40.97;;
39218;SDS011;24934;52.752;6.964;2023-02-15T09:11:31;56.13;;;40.43;;
39218;SDS011;24934;52.752;6.964;2023-02-15T09:14:00;56.30;;;39.13;;
39218;SDS011;24934;52.752;6.964;2023-02-15T09:16:32;62.17;;;41.90;;
39218;SDS011;24934;52.752;6.964;2023-02-15T09:18:59;62.57;;;41.80;;
39218;SDS011;24934;52.752;6.964;2023-02-15T09:21:31;65.13;;;42.97;;
39218;SDS011;24934;52.752;6.964;2023-02-15T09:23:59;63.43;;;42.27;;
39218;SDS011;24934;52.752;6.964;2023-02-15T09:26:27;62.13;;;41.17;;
39218;SDS011;24934;52.752;6.964;2023-02-15T09:28:55;58.60;;;40.67;;
39218;SDS011;24934;52.752;6.964;2023-02-15T09:31:23;58.70;;;40.80;;
39218;SDS011;24934;52.752;6.964;2023-02-15T09:33:52;59.47;;;39.80;;
39218;SDS011;24934;52.752;6.964;2023-02-15T09:36:19;58.37;;;38.30;;
39218;SDS011;24934;52.752;6.964;2023-02-15T09:38:46;54.27;;;37.50;;
39218;SDS011;24934;52.752;6.964;2023-02-15T09:47:12;57.03;;;38.37;;
39218;SDS011;24934;52.752;6.964;2023-02-15T09:56:06;52.27;;;37.73;;
39218;SDS011;24934;52.752;6.964;2023-02-15T10:04:19;51.60;;;36.53;;
39218;SDS011;24934;52.752;6.964;2023-02-15T10:15:17;50.97;;;36.43;;
39218;SDS011;24934;52.752;6.964;2023-02-15T10:18:05;51.40;;;37.70;;
39218;SDS011;24934;52.752;6.964;2023-02-15T10:26:18;54.40;;;36.07;;
39218;SDS011;24934;52.752;6.964;2023-02-15T10:33:46;50.93;;;36.47;;
39218;SDS011;24934;52.752;6.964;2023-02-15T10:36:28;52.93;;;37.03;;
39218;SDS011;24934;52.752;6.964;2023-02-15T10:39:19;52.97;;;37.87;;
39218;SDS011;24934;52.752;6.964;2023-02-15T10:42:03;55.13;;;37.23;;
39218;SDS011;24934;52.752;6.964;2023-02-15T10:45:16;50.67;;;37.57;;
39218;SDS011;24934;52.752;6.964;2023-02-15T10:50:51;54.47;;;39.20;;
39218;SDS011;24934;52.752;6.964;2023-02-15T11:01:43;55.63;;;39.27;;
39218;SDS011;24934;52.752;6.964;2023-02-15T11:04:52;57.10;;;39.83;;
39218;SDS011;24934;52.752;6.964;2023-02-15T11:07:38;57.23;;;39.70;;
39218;SDS011;24934;52.752;6.964;2023-02-15T11:10:18;53.67;;;38.90;;
39218;SDS011;24934;52.752;6.964;2023-02-15T11:12:47;57.07;;;40.77;;
39218;SDS011;24934;52.752;6.964;2023-02-15T11:15:34;52.83;;;38.20;;
39218;SDS011;24934;52.752;6.964;2023-02-15T11:23:45;50.15;;;37.15;;
39218;SDS011;24934;52.752;6.964;2023-02-15T11:31:47;59.30;;;39.90;;
39218;SDS011;24934;52.752;6.964;2023-02-15T11:34:28;54.60;;;39.43;;
39218;SDS011;24934;52.752;6.964;2023-02-15T11:37:10;55.93;;;38.90;;
39218;SDS011;24934;52.752;6.964;2023-02-15T11:39:43;57.60;;;40.15;;
39218;SDS011;24934;52.752;6.964;2023-02-15T11:42:16;57.00;;;39.50;;
39218;SDS011;24934;52.752;6.964;2023-02-15T11:44:54;52.70;;;38.95;;
39218;SDS011;24934;52.752;6.964;2023-02-15T11:47:22;54.40;;;39.38;;
39218;SDS011;24934;52.752;6.964;2023-02-15T11:49:48;52.25;;;38.47;;
39218;SDS011;24934;52.752;6.964;2023-02-15T11:52:14;54.35;;;38.05;;
39218;SDS011;24934;52.752;6.964;2023-02-15T11:54:43;52.60;;;39.08;;
39218;SDS011;24934;52.752;6.964;2023-02-15T11:57:17;53.08;;;38.85;;
39218;SDS011;24934;52.752;6.964;2023-02-15T12:03:03;53.63;;;39.03;;
39218;SDS011;24934;52.752;6.964;2023-02-15T12:05:36;58.05;;;39.75;;
39218;SDS011;24934;52.752;6.964;2023-02-15T12:08:16;54.25;;;38.50;;
39218;SDS011;24934;52.752;6.964;2023-02-15T12:11:26;52.65;;;38.28;;
39218;SDS011;24934;52.752;6.964;2023-02-15T12:13:32;57.95;;;39.47;;
39218;SDS011;24934;52.752;6.964;2023-02-15T12:15:58;55.33;;;38.67;;
39218;SDS011;24934;52.752;6.964;2023-02-15T12:21:06;51.38;;;38.15;;
39218;SDS011;24934;52.752;6.964;2023-02-15T12:23:48;52.78;;;38.75;;
39218;SDS011;24934;52.752;6.964;2023-02-15T12:26:29;56.13;;;39.40;;
39218;SDS011;24934;52.752;6.964;2023-02-15T12:29:00;51.83;;;37.55;;
39218;SDS011;24934;52.752;6.964;2023-02-15T12:31:41;54.67;;;37.38;;
39218;SDS011;24934;52.752;6.964;2023-02-15T12:34:12;50.28;;;37.80;;
39218;SDS011;24934;52.752;6.964;2023-02-15T12:37:22;56.92;;;37.65;;
39218;SDS011;24934;52.752;6.964;2023-02-15T12:39:55;51.13;;;37.72;;
39218;SDS011;24934;52.752;6.964;2023-02-15T12:42:22;53.60;;;38.13;;
39218;SDS011;24934;52.752;6.964;2023-02-15T12:44:53;52.35;;;36.72;;
39218;SDS011;24934;52.752;6.964;2023-02-15T12:47:21;53.92;;;38.03;;
39218;SDS011;24934;52.752;6.964;2023-02-15T12:50:05;51.53;;;36.72;;
39218;SDS011;24934;52.752;6.964;2023-02-15T12:52:36;51.88;;;38.58;;
39218;SDS011;24934;52.752;6.964;2023-02-15T12:55:17;55.15;;;38.30;;
39218;SDS011;24934;52.752;6.964;2023-02-15T12:57:46;54.17;;;38.65;;
39218;SDS011;24934;52.752;6.964;2023-02-15T13:02:54;54.33;;;38.40;;
39218;SDS011;24934;52.752;6.964;2023-02-15T13:05:23;51.75;;;36.53;;
39218;SDS011;24934;52.752;6.964;2023-02-15T13:13:24;53.35;;;37.67;;
39218;SDS011;24934;52.752;6.964;2023-02-15T13:15:58;57.38;;;37.08;;
39218;SDS011;24934;52.752;6.964;2023-02-15T13:18:36;51.67;;;35.60;;
39218;SDS011;24934;52.752;6.964;2023-02-15T13:21:09;58.05;;;36.42;;
39218;SDS011;24934;52.752;6.964;2023-02-15T13:23:47;55.20;;;37.20;;
39218;SDS011;24934;52.752;6.964;2023-02-15T13:26:23;56.22;;;37.05;;
39218;SDS011;24934;52.752;6.964;2023-02-15T13:29:10;51.30;;;34.53;;
39218;SDS011;24934;52.752;6.964;2023-02-15T13:31:49;48.50;;;32.15;;
39218;SDS011;24934;52.752;6.964;2023-02-15T13:34:17;50.28;;;34.05;;
39218;SDS011;24934;52.752;6.964;2023-02-15T13:39:54;48.13;;;33.25;;
39218;SDS011;24934;52.752;6.964;2023-02-15T13:42:49;50.60;;;33.83;;
39218;SDS011;24934;52.752;6.964;2023-02-15T13:48:18;47.35;;;32.63;;
39218;SDS011;24934;52.752;6.964;2023-02-15T13:53:43;51.25;;;33.78;;
39218;SDS011;24934;52.752;6.964;2023-02-15T13:56:44;48.38;;;31.92;;
39218;SDS011;24934;52.752;6.964;2023-02-15T13:59:40;52.15;;;32.80;;
39218;SDS011;24934;52.752;6.964;2023-02-15T14:05:29;48.00;;;31.88;;
39218;SDS011;24934;52.752;6.964;2023-02-15T14:08:39;50.90;;;32.97;;
39218;SDS011;24934;52.752;6.964;2023-02-15T14:19:31;50.05;;;32.88;;
39218;SDS011;24934;52.752;6.964;2023-02-15T14:22:19;48.63;;;32.50;;
39218;SDS011;24934;52.752;6.964;2023-02-15T14:30:56;50.40;;;33.08;;
39218;SDS011;24934;52.752;6.964;2023-02-15T14:35:58;48.13;;;33.30;;
39218;SDS011;24934;52.752;6.964;2023-02-15T14:38:42;54.45;;;33.33;;
39218;SDS011;24934;52.752;6.964;2023-02-15T14:41:12;50.58;;;34.05;;
39218;SDS011;24934;52.752;6.964;2023-02-15T14:49:25;54.88;;;34.47;;
39218;SDS011;24934;52.752;6.964;2023-02-15T14:51:55;49.33;;;32.97;;
39218;SDS011;24934;52.752;6.964;2023-02-15T15:04:34;50.65;;;33.97;;
39218;SDS011;24934;52.752;6.964;2023-02-15T15:09:41;51.47;;;32.90;;
39218;SDS011;24934;52.752;6.964;2023-02-15T15:12:18;49.97;;;31.88;;
39218;SDS011;24934;52.752;6.964;2023-02-15T15:15:00;51.95;;;32.92;;
39218;SDS011;24934;52.752;6.964;2023-02-15T15:20:11;48.30;;;32.17;;
39218;SDS011;24934;52.752;6.964;2023-02-15T15:25:49;49.53;;;31.98;;
39218;SDS011;24934;52.752;6.964;2023-02-15T15:36:34;50.42;;;31.80;;
39218;SDS011;24934;52.752;6.964;2023-02-15T15:39:33;52.10;;;31.48;;
39218;SDS011;24934;52.752;6.964;2023-02-15T15:42:12;53.10;;;32.13;;
39218;SDS011;24934;52.752;6.964;2023-02-15T15:50:17;51.57;;;33.07;;
39218;SDS011;24934;52.752;6.964;2023-02-15T15:52:49;55.63;;;31.80;;
39218;SDS011;24934;52.752;6.964;2023-02-15T15:55:22;50.13;;;30.73;;
39218;SDS011;24934;52.752;6.964;2023-02-15T15:57:51;58.07;;;33.80;;
39218;SDS011;24934;52.752;6.964;2023-02-15T16:00:28;51.33;;;30.60;;
39218;SDS011;24934;52.752;6.964;2023-02-15T16:02:59;51.00;;;32.00;;
39218;SDS011;24934;52.752;6.964;2023-02-15T16:05:25;59.37;;;32.93;;
39218;SDS011;24934;52.752;6.964;2023-02-15T16:07:50;49.30;;;31.37;;
39218;SDS011;24934;52.752;6.964;2023-02-15T16:10:22;50.87;;;30.70;;
39218;SDS011;24934;52.752;6.964;2023-02-15T16:12:52;53.67;;;32.07;;
39218;SDS011;24934;52.752;6.964;2023-02-15T16:15:23;54.47;;;30.97;;
39218;SDS011;24934;52.752;6.964;2023-02-15T16:18:01;50.30;;;31.00;;
39218;SDS011;24934;52.752;6.964;2023-02-15T16:20:34;49.90;;;31.30;;
39218;SDS011;24934;52.752;6.964;2023-02-15T16:25:58;53.83;;;32.30;;
39218;SDS011;24934;52.752;6.964;2023-02-15T16:28:35;56.17;;;32.80;;
39218;SDS011;24934;52.752;6.964;2023-02-15T16:31:11;57.80;;;34.57;;
39218;SDS011;24934;52.752;6.964;2023-02-15T16:33:42;57.10;;;32.93;;
39218;SDS011;24934;52.752;6.964;2023-02-15T16:36:19;59.30;;;34.60;;
39218;SDS011;24934;52.752;6.964;2023-02-15T16:43:51;56.40;;;34.17;;
39218;SDS011;24934;52.752;6.964;2023-02-15T16:46:20;59.97;;;34.60;;
39218;SDS011;24934;52.752;6.964;2023-02-15T16:48:52;58.10;;;34.73;;
39218;SDS011;24934;52.752;6.964;2023-02-15T16:51:24;59.37;;;34.23;;
39218;SDS011;24934;52.752;6.964;2023-02-15T16:53:55;59.50;;;34.83;;
39218;SDS011;24934;52.752;6.964;2023-02-15T16:56:26;52.67;;;34.63;;
39218;SDS011;24934;52.752;6.964;2023-02-15T16:58:55;63.67;;;36.10;;
39218;SDS011;24934;52.752;6.964;2023-02-15T17:01:23;58.17;;;34.83;;
39218;SDS011;24934;52.752;6.964;2023-02-15T17:03:52;60.83;;;35.77;;
39218;SDS011;24934;52.752;6.964;2023-02-15T17:07:20;67.63;;;38.87;;
39218;SDS011;24934;52.752;6.964;2023-02-15T17:09:50;66.40;;;37.80;;
39218;SDS011;24934;52.752;6.964;2023-02-15T17:12:43;64.33;;;37.87;;
39218;SDS011;24934;52.752;6.964;2023-02-15T17:15:33;63.00;;;36.33;;
39218;SDS011;24934;52.752;6.964;2023-02-15T17:18:03;59.73;;;35.53;;
39218;SDS011;24934;52.752;6.964;2023-02-15T17:20:31;61.93;;;35.87;;
39218;SDS011;24934;52.752;6.964;2023-02-15T17:22:58;55.93;;;35.33;;
39218;SDS011;24934;52.752;6.964;2023-02-15T17:25:37;61.63;;;35.63;;
39218;SDS011;24934;52.752;6.964;2023-02-15T17:28:05;62.90;;;37.43;;
39218;SDS011;24934;52.752;6.964;2023-02-15T17:30:42;63.33;;;36.97;;
39218;SDS011;24934;52.752;6.964;2023-02-15T17:33:25;61.93;;;37.30;;
39218;SDS011;24934;52.752;6.964;2023-02-15T17:38:38;61.70;;;36.37;;
39218;SDS011;24934;52.752;6.964;2023-02-15T17:41:05;61.93;;;37.10;;
39218;SDS011;24934;52.752;6.964;2023-02-15T17:43:31;62.97;;;37.93;;
39218;SDS011;24934;52.752;6.964;2023-02-15T17:45:56;61.03;;;37.43;;
39218;SDS011;24934;52.752;6.964;2023-02-15T17:48:26;61.10;;;37.13;;